createdAt,value
2022-08-27T00:04:56.556Z,18.4
2022-08-27T00:10:26.818Z,18.3
2022-08-27T00:16:11.586Z,18.2
2022-08-27T00:22:06.168Z,18.2
2022-08-27T00:27:14.065Z,18.2
2022-08-27T00:33:16.280Z,18.1
2022-08-27T00:38:40.655Z,18
2022-08-27T00:44:13.633Z,18
2022-08-27T00:49:54.607Z,18
2022-08-27T00:55:19.000Z,18
2022-08-27T01:01:04.020Z,18
2022-08-27T01:06:32.413Z,17.9
2022-08-27T01:12:14.590Z,17.8
2022-08-27T01:17:33.720Z,17.8
2022-08-27T01:23:21.105Z,17.8
2022-08-27T01:28:56.964Z,17.9
2022-08-27T01:34:17.988Z,17.8
2022-08-27T01:40:13.550Z,17.8
2022-08-27T01:45:31.293Z,17.7
2022-08-27T01:51:07.797Z,17.7
2022-08-27T01:56:57.208Z,17.7
2022-08-27T02:02:37.359Z,17.6
2022-08-27T02:08:07.417Z,17.6
2022-08-27T02:13:40.901Z,17.5
2022-08-27T02:19:24.085Z,17.3
2022-08-27T02:24:44.230Z,17.4
2022-08-27T02:30:35.150Z,17.4
2022-08-27T02:35:49.634Z,17.4
2022-08-27T02:41:16.848Z,17.4
2022-08-27T02:47:14.057Z,17.3
2022-08-27T02:52:27.931Z,17.3
2022-08-27T02:58:02.759Z,17.5
2022-08-27T03:03:40.529Z,17.4
2022-08-27T03:09:30.572Z,17.4
2022-08-27T03:15:10.799Z,17.4
2022-08-27T03:20:46.009Z,17.4
2022-08-27T03:26:07.231Z,17.4
2022-08-27T03:31:55.413Z,17.3
2022-08-27T03:37:21.572Z,17.4
2022-08-27T03:42:59.220Z,17.3
2022-08-27T03:48:29.020Z,17.3
2022-08-27T03:54:05.093Z,17.3
2022-08-27T03:59:26.743Z,17.3
2022-08-27T04:10:36.903Z,17.2
2022-08-27T04:16:35.272Z,17.3
2022-08-27T04:22:00.878Z,17.2
2022-08-27T04:27:31.902Z,17.3
2022-08-27T04:32:58.316Z,17.2
2022-08-27T04:38:36.930Z,17.3
2022-08-27T04:44:13.607Z,17.3
2022-08-27T04:49:58.727Z,17.2
2022-08-27T04:55:30.868Z,17.3
2022-08-27T05:01:14.569Z,17.3
2022-08-27T05:06:21.767Z,17.4
2022-08-27T05:12:19.745Z,17.4
2022-08-27T05:17:36.625Z,17.5
2022-08-27T05:23:29.613Z,17.5
2022-08-27T05:28:57.727Z,17.3
2022-08-27T05:34:24.589Z,17.3
2022-08-27T05:40:01.470Z,17.3
2022-08-27T05:45:43.628Z,17.4
2022-08-27T05:51:25.229Z,17.4
2022-08-27T05:56:46.301Z,17.4
2022-08-27T06:02:23.785Z,17.4
2022-08-27T06:08:05.722Z,17.3
2022-08-27T06:13:35.736Z,17.4
2022-08-27T06:19:20.884Z,17.3
2022-08-27T06:24:33.269Z,17.4
2022-08-27T06:30:06.049Z,17.4
2022-08-27T06:36:05.231Z,17.3
2022-08-27T06:41:46.299Z,17.5
2022-08-27T06:47:11.332Z,17.3
2022-08-27T06:52:31.211Z,17.3
2022-08-27T06:58:22.529Z,17.3
2022-08-27T07:04:06.777Z,17.3
2022-08-27T07:09:32.644Z,17.4
2022-08-27T07:15:10.120Z,17.4
2022-08-27T07:20:51.175Z,17.5
2022-08-27T07:26:22.479Z,17.6
2022-08-27T07:31:43.097Z,17.7
2022-08-27T07:37:32.525Z,17.8
2022-08-27T07:43:11.424Z,17.9
2022-08-27T07:48:38.177Z,18
2022-08-27T07:54:12.670Z,18.1
2022-08-27T07:59:53.371Z,18.3
2022-08-27T08:05:20.394Z,18.5
2022-08-27T08:10:58.943Z,18.8
2022-08-27T08:16:31.700Z,19
2022-08-27T08:22:06.179Z,18.8
2022-08-27T08:27:50.309Z,19.6
2022-08-27T08:33:30.511Z,19.5
2022-08-27T08:38:58.235Z,19.4
2022-08-27T08:44:46.756Z,20.1
2022-08-27T08:50:28.932Z,20.1
2022-08-27T08:55:57.162Z,20.6
2022-08-27T09:01:44.372Z,20.7
2022-08-27T09:07:14.484Z,20.4
2022-08-27T09:12:44.099Z,20.2
2022-08-27T09:18:14.393Z,20.2
2022-08-27T09:24:05.401Z,20.6
2022-08-27T09:29:45.613Z,20.9
2022-08-27T09:40:51.279Z,21.6
2022-08-27T09:46:16.567Z,21.9
2022-08-27T09:52:13.502Z,22.2
2022-08-27T09:57:37.505Z,22.5
2022-08-27T10:03:17.141Z,21.8
2022-08-27T10:09:01.926Z,22.1
2022-08-27T10:14:48.787Z,21.7
2022-08-27T10:20:16.918Z,21.5
2022-08-27T10:25:54.386Z,21.9
2022-08-27T10:31:31.010Z,22.1
2022-08-27T10:36:58.576Z,22
2022-08-27T10:42:34.293Z,22.5
2022-08-27T10:48:29.838Z,22.3
2022-08-27T10:53:58.989Z,22.9
2022-08-27T10:59:37.066Z,23.1
2022-08-27T11:05:06.381Z,23.3
2022-08-27T11:11:31.899Z,23.3
2022-08-27T11:16:46.714Z,23.7
2022-08-27T11:22:14.911Z,23.3
2022-08-27T11:27:41.969Z,23.7
2022-08-27T11:33:36.287Z,23.9
2022-08-27T11:39:17.121Z,24
2022-08-27T11:44:51.662Z,24.6
2022-08-27T11:50:12.085Z,24
2022-08-27T11:55:52.030Z,24.5
2022-08-27T12:01:54.431Z,24.6
2022-08-27T12:07:20.218Z,24.2
2022-08-27T12:12:48.045Z,24.5
2022-08-27T12:18:48.134Z,24.4
2022-08-27T12:24:24.445Z,24.5
2022-08-27T12:29:50.741Z,24.6
2022-08-27T12:35:40.393Z,24.9
2022-08-27T12:41:27.235Z,24.4
2022-08-27T12:46:59.087Z,25.2
2022-08-27T12:52:28.500Z,25
2022-08-27T12:58:02.868Z,25.2
2022-08-27T13:04:00.361Z,25.3
2022-08-27T13:09:42.392Z,25.5
2022-08-27T13:15:16.917Z,25.2
2022-08-27T13:20:53.619Z,25.4
2022-08-27T13:26:25.438Z,24.8
2022-08-27T13:32:03.266Z,25.1
2022-08-27T13:38:00.233Z,25.8
2022-08-27T13:43:23.533Z,25.6
2022-08-27T13:49:01.988Z,25.6
2022-08-27T13:54:49.820Z,25.4
2022-08-27T14:00:26.270Z,25.6
2022-08-27T14:05:55.318Z,25.8
2022-08-27T14:11:32.832Z,26
2022-08-27T14:17:35.672Z,25.6
2022-08-27T14:22:57.378Z,25.5
2022-08-27T14:28:55.958Z,25.3
2022-08-27T14:34:15.452Z,25.6
2022-08-27T14:40:14.607Z,25.7
2022-08-27T14:45:36.972Z,25.8
2022-08-27T14:51:30.663Z,25.7
2022-08-27T14:56:49.017Z,26
2022-08-27T15:02:27.435Z,25.8
2022-08-27T18:08:51.613Z,22.1
2022-08-27T18:37:15.416Z,21.6
2022-08-27T19:05:22.095Z,20.5
2022-08-27T19:10:41.936Z,20.4
2022-08-27T19:16:29.676Z,20.4
2022-08-27T19:21:51.753Z,20.4
2022-08-27T19:27:40.763Z,20.2
2022-08-27T19:33:09.541Z,20.1
2022-08-27T19:38:29.804Z,19.9
2022-08-27T19:44:18.027Z,19.9
2022-08-27T19:49:42.872Z,20
2022-08-27T19:55:20.631Z,19.9
2022-08-27T20:00:54.573Z,19.9
2022-08-27T20:06:33.652Z,19.8
2022-08-27T20:12:01.350Z,19.9
2022-08-27T20:17:51.465Z,19.8
2022-08-27T20:23:29.148Z,19.8
2022-08-27T20:29:09.086Z,19.8
2022-08-27T20:34:29.988Z,19.7
2022-08-27T20:40:13.173Z,19.7
2022-08-27T20:57:03.024Z,19.3
2022-08-27T21:24:47.482Z,18.9
2022-08-27T21:47:14.672Z,18.7
2022-08-27T22:20:45.404Z,18.1
2022-08-27T22:26:35.276Z,17.9
2022-08-27T22:31:56.110Z,17.9
2022-08-27T22:37:31.944Z,17.9
2022-08-27T22:43:26.084Z,18.1
2022-08-27T22:48:49.686Z,17.9
2022-08-27T22:54:35.038Z,17.9
